Terminal Aerodrome Forecast
Issued by NWS

Home | Current Version | Previous Version | Text Only | Print | Product List | Glossary On
Versions: 1 2 3 4 5 6 7 8 9 10 11 12 13 14 15
000
FTUS45 KRIW 211733
TAFBPI
TAF
KBPI 211733Z 2118/2218 32007KT P6SM SCT040
     FM220100 VRB06KT P6SM -SNRA SCT020 OVC040
     FM220600 VRB04KT 4SM -FZRA BR SCT006 OVC015
     FM220800 VRB06KT 2SM -FZRA BR SCT002 BKN009 OVC015
     FM221700 34007KT 5SM -RA BR SCT009 BKN015 OVC150=

USA.gov is the U.S. government's official web portal to all federal, state and local government web resources and services.